Ashton, West Virginia
Current Conditions -  °F | °C
As of 6:55 PM on Wednesday 22 Oct 2014 (Local Time) from K3I2 Reporting Station
Overcast Overcast  
Wind Chill: 52°   Ceiling: 2800
Heat Index: 52°   Visibility: 10mi
Dew Point: 45°   Wind: 0mph
Humidity: 76%   Direction: NA
Pressure: 30.24"   Gusts: NA
Location:  38.62°N, 82.16°W
Report Text: K3I2 222255Z AUTO 00000KT 10SM OVC028 11/07 A3024 RMK AO2
Loading
Personal Weather Stations






























Interactive Weather Map
Tropical Storm Tracking
New forecast layout! Learn more

10-Day Weather Forecast

Advertisements
Track Severe Weather on mobile